sensor_id;sensor_type;location;lat;lon;timestamp;P1;durP1;ratioP1;P2;durP2;ratioP2
61393;SDS011;48555;50.952;-0.120;2024-03-02T00:00:03;5.55;;;1.58;;
61393;SDS011;48555;50.952;-0.120;2024-03-02T00:05:12;5.43;;;1.48;;
61393;SDS011;48555;50.952;-0.120;2024-03-02T00:07:41;8.55;;;1.70;;
61393;SDS011;48555;50.952;-0.120;2024-03-02T00:10:10;5.38;;;1.20;;
61393;SDS011;48555;50.952;-0.120;2024-03-02T00:12:39;6.80;;;1.63;;
61393;SDS011;48555;50.952;-0.120;2024-03-02T00:17:54;5.82;;;1.23;;
61393;SDS011;48555;50.952;-0.120;2024-03-02T00:20:21;6.35;;;1.17;;
61393;SDS011;48555;50.952;-0.120;2024-03-02T00:22:48;8.60;;;1.48;;
61393;SDS011;48555;50.952;-0.120;2024-03-02T00:25:16;4.82;;;1.20;;
61393;SDS011;48555;50.952;-0.120;2024-03-02T00:27:42;4.47;;;1.10;;
61393;SDS011;48555;50.952;-0.120;2024-03-02T00:32:56;9.80;;;1.55;;
61393;SDS011;48555;50.952;-0.120;2024-03-02T00:35:21;7.57;;;0.95;;
61393;SDS011;48555;50.952;-0.120;2024-03-02T00:37:48;8.90;;;1.70;;
61393;SDS011;48555;50.952;-0.120;2024-03-02T00:40:13;7.20;;;2.20;;
61393;SDS011;48555;50.952;-0.120;2024-03-02T00:42:39;8.20;;;1.20;;
61393;SDS011;48555;50.952;-0.120;2024-03-02T00:45:07;5.53;;;1.42;;
61393;SDS011;48555;50.952;-0.120;2024-03-02T00:47:37;7.75;;;1.30;;
61393;SDS011;48555;50.952;-0.120;2024-03-02T00:50:06;9.68;;;1.45;;
61393;SDS011;48555;50.952;-0.120;2024-03-02T00:52:32;6.10;;;1.23;;
61393;SDS011;48555;50.952;-0.120;2024-03-02T00:54:58;9.35;;;1.60;;
61393;SDS011;48555;50.952;-0.120;2024-03-02T00:57:24;4.60;;;1.02;;
61393;SDS011;48555;50.952;-0.120;2024-03-02T00:59:50;9.57;;;1.60;;
61393;SDS011;48555;50.952;-0.120;2024-03-02T01:02:16;5.88;;;1.50;;
61393;SDS011;48555;50.952;-0.120;2024-03-02T01:04:41;4.80;;;0.95;;
61393;SDS011;48555;50.952;-0.120;2024-03-02T01:07:07;6.15;;;1.63;;
61393;SDS011;48555;50.952;-0.120;2024-03-02T01:09:32;4.15;;;1.15;;
61393;SDS011;48555;50.952;-0.120;2024-03-02T01:11:57;4.70;;;1.08;;
61393;SDS011;48555;50.952;-0.120;2024-03-02T01:14:23;7.22;;;1.13;;
61393;SDS011;48555;50.952;-0.120;2024-03-02T01:16:48;11.25;;;1.77;;
61393;SDS011;48555;50.952;-0.120;2024-03-02T01:19:14;7.80;;;1.60;;
61393;SDS011;48555;50.952;-0.120;2024-03-02T01:21:39;10.68;;;1.88;;
61393;SDS011;48555;50.952;-0.120;2024-03-02T01:24:05;8.27;;;1.58;;
61393;SDS011;48555;50.952;-0.120;2024-03-02T01:26:30;8.18;;;1.75;;
61393;SDS011;48555;50.952;-0.120;2024-03-02T01:28:56;6.60;;;1.23;;
61393;SDS011;48555;50.952;-0.120;2024-03-02T01:31:21;10.23;;;1.67;;
61393;SDS011;48555;50.952;-0.120;2024-03-02T01:33:47;9.35;;;1.42;;
61393;SDS011;48555;50.952;-0.120;2024-03-02T01:36:12;9.90;;;1.63;;
61393;SDS011;48555;50.952;-0.120;2024-03-02T01:38:37;6.55;;;1.33;;
61393;SDS011;48555;50.952;-0.120;2024-03-02T01:41:03;9.20;;;1.40;;
61393;SDS011;48555;50.952;-0.120;2024-03-02T01:43:28;7.68;;;1.35;;
61393;SDS011;48555;50.952;-0.120;2024-03-02T01:45:53;4.47;;;1.50;;
61393;SDS011;48555;50.952;-0.120;2024-03-02T01:48:19;9.32;;;1.58;;
61393;SDS011;48555;50.952;-0.120;2024-03-02T01:50:44;11.48;;;1.85;;
61393;SDS011;48555;50.952;-0.120;2024-03-02T01:53:09;6.18;;;1.20;;
61393;SDS011;48555;50.952;-0.120;2024-03-02T01:55:35;6.07;;;1.35;;
61393;SDS011;48555;50.952;-0.120;2024-03-02T01:58:00;13.52;;;1.50;;
61393;SDS011;48555;50.952;-0.120;2024-03-02T02:00:26;6.10;;;1.23;;
61393;SDS011;48555;50.952;-0.120;2024-03-02T02:02:52;5.88;;;1.38;;
61393;SDS011;48555;50.952;-0.120;2024-03-02T02:05:18;4.35;;;1.15;;
61393;SDS011;48555;50.952;-0.120;2024-03-02T02:07:43;7.25;;;1.33;;
61393;SDS011;48555;50.952;-0.120;2024-03-02T02:10:12;7.03;;;1.85;;
61393;SDS011;48555;50.952;-0.120;2024-03-02T02:12:37;9.80;;;1.25;;
61393;SDS011;48555;50.952;-0.120;2024-03-02T02:15:04;8.98;;;1.90;;
61393;SDS011;48555;50.952;-0.120;2024-03-02T02:17:46;6.38;;;1.27;;
61393;SDS011;48555;50.952;-0.120;2024-03-02T02:20:11;10.77;;;1.75;;
61393;SDS011;48555;50.952;-0.120;2024-03-02T02:22:36;9.95;;;1.63;;
61393;SDS011;48555;50.952;-0.120;2024-03-02T02:25:02;8.38;;;1.55;;
61393;SDS011;48555;50.952;-0.120;2024-03-02T02:27:27;10.43;;;2.25;;
61393;SDS011;48555;50.952;-0.120;2024-03-02T02:29:52;10.25;;;1.80;;
61393;SDS011;48555;50.952;-0.120;2024-03-02T02:32:17;8.82;;;2.00;;
61393;SDS011;48555;50.952;-0.120;2024-03-02T02:34:43;11.43;;;1.85;;
61393;SDS011;48555;50.952;-0.120;2024-03-02T02:37:08;11.35;;;1.60;;
61393;SDS011;48555;50.952;-0.120;2024-03-02T02:39:33;7.82;;;2.10;;
61393;SDS011;48555;50.952;-0.120;2024-03-02T02:41:59;8.43;;;1.98;;
61393;SDS011;48555;50.952;-0.120;2024-03-02T02:44:26;12.18;;;1.95;;
61393;SDS011;48555;50.952;-0.120;2024-03-02T02:46:51;11.48;;;1.77;;
61393;SDS011;48555;50.952;-0.120;2024-03-02T02:49:16;7.90;;;2.20;;
61393;SDS011;48555;50.952;-0.120;2024-03-02T02:51:42;6.97;;;1.55;;
61393;SDS011;48555;50.952;-0.120;2024-03-02T02:54:07;9.27;;;1.90;;
61393;SDS011;48555;50.952;-0.120;2024-03-02T02:56:32;11.20;;;1.98;;
61393;SDS011;48555;50.952;-0.120;2024-03-02T02:58:58;8.48;;;2.30;;
61393;SDS011;48555;50.952;-0.120;2024-03-02T03:01:23;9.27;;;1.60;;
61393;SDS011;48555;50.952;-0.120;2024-03-02T03:03:49;9.18;;;2.25;;
61393;SDS011;48555;50.952;-0.120;2024-03-02T03:06:14;11.73;;;2.15;;
61393;SDS011;48555;50.952;-0.120;2024-03-02T03:08:39;6.35;;;1.75;;
61393;SDS011;48555;50.952;-0.120;2024-03-02T03:11:04;6.75;;;1.70;;
61393;SDS011;48555;50.952;-0.120;2024-03-02T03:13:30;9.43;;;2.28;;
61393;SDS011;48555;50.952;-0.120;2024-03-02T03:15:57;11.23;;;2.05;;
61393;SDS011;48555;50.952;-0.120;2024-03-02T03:18:22;6.30;;;1.33;;
61393;SDS011;48555;50.952;-0.120;2024-03-02T03:20:47;8.40;;;1.63;;
61393;SDS011;48555;50.952;-0.120;2024-03-02T03:23:13;7.53;;;2.10;;
61393;SDS011;48555;50.952;-0.120;2024-03-02T03:25:41;9.00;;;1.98;;
61393;SDS011;48555;50.952;-0.120;2024-03-02T03:28:07;14.50;;;2.33;;
61393;SDS011;48555;50.952;-0.120;2024-03-02T03:30:35;7.85;;;1.85;;
61393;SDS011;48555;50.952;-0.120;2024-03-02T03:33:04;6.18;;;1.55;;
61393;SDS011;48555;50.952;-0.120;2024-03-02T03:35:31;7.78;;;1.67;;
61393;SDS011;48555;50.952;-0.120;2024-03-02T03:37:56;9.10;;;1.77;;
61393;SDS011;48555;50.952;-0.120;2024-03-02T03:40:22;7.95;;;1.52;;
61393;SDS011;48555;50.952;-0.120;2024-03-02T03:42:47;8.05;;;1.80;;
61393;SDS011;48555;50.952;-0.120;2024-03-02T03:45:13;7.03;;;1.52;;
61393;SDS011;48555;50.952;-0.120;2024-03-02T03:47:39;9.80;;;2.13;;
61393;SDS011;48555;50.952;-0.120;2024-03-02T03:50:05;10.18;;;2.38;;
61393;SDS011;48555;50.952;-0.120;2024-03-02T03:52:32;10.43;;;1.70;;
61393;SDS011;48555;50.952;-0.120;2024-03-02T03:54:57;10.40;;;1.80;;
61393;SDS011;48555;50.952;-0.120;2024-03-02T03:57:23;11.20;;;2.38;;
61393;SDS011;48555;50.952;-0.120;2024-03-02T03:59:48;17.80;;;2.22;;
61393;SDS011;48555;50.952;-0.120;2024-03-02T04:02:13;10.10;;;1.75;;
61393;SDS011;48555;50.952;-0.120;2024-03-02T04:04:38;10.73;;;1.70;;
61393;SDS011;48555;50.952;-0.120;2024-03-02T04:07:04;9.15;;;2.20;;
61393;SDS011;48555;50.952;-0.120;2024-03-02T04:09:29;9.40;;;2.00;;
61393;SDS011;48555;50.952;-0.120;2024-03-02T04:11:54;11.75;;;1.92;;
61393;SDS011;48555;50.952;-0.120;2024-03-02T04:14:20;12.07;;;2.10;;
61393;SDS011;48555;50.952;-0.120;2024-03-02T04:16:45;9.77;;;1.70;;
61393;SDS011;48555;50.952;-0.120;2024-03-02T04:19:10;9.30;;;2.38;;
61393;SDS011;48555;50.952;-0.120;2024-03-02T04:21:36;9.43;;;1.60;;
61393;SDS011;48555;50.952;-0.120;2024-03-02T04:24:02;9.60;;;2.05;;
61393;SDS011;48555;50.952;-0.120;2024-03-02T04:26:27;8.65;;;1.83;;
61393;SDS011;48555;50.952;-0.120;2024-03-02T04:28:53;7.30;;;1.90;;
61393;SDS011;48555;50.952;-0.120;2024-03-02T04:31:18;8.57;;;1.67;;
61393;SDS011;48555;50.952;-0.120;2024-03-02T04:33:44;9.05;;;2.13;;
61393;SDS011;48555;50.952;-0.120;2024-03-02T04:36:09;11.05;;;2.10;;
61393;SDS011;48555;50.952;-0.120;2024-03-02T04:38:35;10.68;;;1.85;;
61393;SDS011;48555;50.952;-0.120;2024-03-02T04:41:01;11.30;;;2.08;;
61393;SDS011;48555;50.952;-0.120;2024-03-02T04:43:26;6.63;;;1.60;;
61393;SDS011;48555;50.952;-0.120;2024-03-02T04:45:51;11.65;;;2.40;;
61393;SDS011;48555;50.952;-0.120;2024-03-02T04:48:17;11.20;;;2.03;;
61393;SDS011;48555;50.952;-0.120;2024-03-02T04:50:42;13.93;;;2.60;;
61393;SDS011;48555;50.952;-0.120;2024-03-02T04:53:07;9.88;;;2.15;;
61393;SDS011;48555;50.952;-0.120;2024-03-02T04:55:33;15.73;;;2.20;;
61393;SDS011;48555;50.952;-0.120;2024-03-02T04:58:04;10.57;;;1.85;;
61393;SDS011;48555;50.952;-0.120;2024-03-02T05:00:30;9.52;;;2.05;;
61393;SDS011;48555;50.952;-0.120;2024-03-02T05:02:55;9.82;;;2.40;;
61393;SDS011;48555;50.952;-0.120;2024-03-02T05:05:20;7.20;;;1.75;;
61393;SDS011;48555;50.952;-0.120;2024-03-02T05:07:46;10.75;;;2.10;;
61393;SDS011;48555;50.952;-0.120;2024-03-02T05:10:11;7.72;;;2.10;;
61393;SDS011;48555;50.952;-0.120;2024-03-02T05:12:36;12.93;;;1.98;;
61393;SDS011;48555;50.952;-0.120;2024-03-02T05:15:08;10.88;;;1.67;;
61393;SDS011;48555;50.952;-0.120;2024-03-02T05:17:38;12.05;;;1.80;;
61393;SDS011;48555;50.952;-0.120;2024-03-02T05:20:05;18.02;;;2.53;;
61393;SDS011;48555;50.952;-0.120;2024-03-02T05:22:32;7.13;;;1.85;;
61393;SDS011;48555;50.952;-0.120;2024-03-02T05:24:58;9.23;;;1.55;;
61393;SDS011;48555;50.952;-0.120;2024-03-02T05:27:24;7.82;;;2.05;;
61393;SDS011;48555;50.952;-0.120;2024-03-02T05:29:50;11.07;;;2.30;;
61393;SDS011;48555;50.952;-0.120;2024-03-02T05:32:15;12.40;;;2.38;;
61393;SDS011;48555;50.952;-0.120;2024-03-02T05:34:40;11.77;;;2.13;;
61393;SDS011;48555;50.952;-0.120;2024-03-02T05:37:06;11.70;;;2.50;;
61393;SDS011;48555;50.952;-0.120;2024-03-02T05:39:31;9.23;;;1.50;;
61393;SDS011;48555;50.952;-0.120;2024-03-02T05:41:56;8.00;;;1.90;;
61393;SDS011;48555;50.952;-0.120;2024-03-02T05:44:22;10.77;;;2.05;;
61393;SDS011;48555;50.952;-0.120;2024-03-02T05:46:47;9.32;;;1.85;;
61393;SDS011;48555;50.952;-0.120;2024-03-02T05:49:13;12.25;;;2.60;;
61393;SDS011;48555;50.952;-0.120;2024-03-02T05:51:38;8.65;;;1.67;;
61393;SDS011;48555;50.952;-0.120;2024-03-02T05:54:03;10.15;;;1.83;;
61393;SDS011;48555;50.952;-0.120;2024-03-02T05:56:29;13.30;;;2.33;;
61393;SDS011;48555;50.952;-0.120;2024-03-02T05:58:54;9.75;;;2.13;;
61393;SDS011;48555;50.952;-0.120;2024-03-02T06:01:40;7.10;;;1.60;;
61393;SDS011;48555;50.952;-0.120;2024-03-02T06:04:07;9.38;;;1.88;;
61393;SDS011;48555;50.952;-0.120;2024-03-02T06:06:33;7.10;;;2.03;;
61393;SDS011;48555;50.952;-0.120;2024-03-02T06:08:59;7.47;;;1.63;;
61393;SDS011;48555;50.952;-0.120;2024-03-02T06:11:25;8.38;;;1.48;;
61393;SDS011;48555;50.952;-0.120;2024-03-02T06:13:51;8.50;;;2.15;;
61393;SDS011;48555;50.952;-0.120;2024-03-02T06:16:16;6.35;;;1.23;;
61393;SDS011;48555;50.952;-0.120;2024-03-02T06:18:41;5.72;;;1.77;;
61393;SDS011;48555;50.952;-0.120;2024-03-02T06:21:06;9.90;;;2.17;;
61393;SDS011;48555;50.952;-0.120;2024-03-02T06:23:33;7.63;;;1.55;;
61393;SDS011;48555;50.952;-0.120;2024-03-02T06:25:58;6.50;;;1.35;;
61393;SDS011;48555;50.952;-0.120;2024-03-02T06:28:23;6.95;;;1.38;;
61393;SDS011;48555;50.952;-0.120;2024-03-02T06:30:49;8.07;;;1.15;;
61393;SDS011;48555;50.952;-0.120;2024-03-02T06:33:14;4.68;;;1.27;;
61393;SDS011;48555;50.952;-0.120;2024-03-02T06:35:39;11.65;;;1.77;;
61393;SDS011;48555;50.952;-0.120;2024-03-02T06:38:06;9.00;;;1.75;;
61393;SDS011;48555;50.952;-0.120;2024-03-02T06:40:31;7.50;;;1.73;;
61393;SDS011;48555;50.952;-0.120;2024-03-02T06:42:56;10.65;;;1.70;;
61393;SDS011;48555;50.952;-0.120;2024-03-02T06:45:22;6.07;;;1.30;;
61393;SDS011;48555;50.952;-0.120;2024-03-02T06:47:47;9.07;;;1.58;;
61393;SDS011;48555;50.952;-0.120;2024-03-02T06:50:12;7.40;;;1.70;;
61393;SDS011;48555;50.952;-0.120;2024-03-02T06:52:37;9.43;;;1.67;;
61393;SDS011;48555;50.952;-0.120;2024-03-02T06:55:03;8.93;;;1.85;;
61393;SDS011;48555;50.952;-0.120;2024-03-02T06:57:29;4.72;;;1.42;;
61393;SDS011;48555;50.952;-0.120;2024-03-02T06:59:55;4.32;;;1.25;;
61393;SDS011;48555;50.952;-0.120;2024-03-02T07:02:23;6.07;;;1.65;;
61393;SDS011;48555;50.952;-0.120;2024-03-02T07:04:50;8.13;;;1.55;;
61393;SDS011;48555;50.952;-0.120;2024-03-02T07:07:16;11.88;;;1.85;;
61393;SDS011;48555;50.952;-0.120;2024-03-02T07:09:41;9.93;;;1.85;;
61393;SDS011;48555;50.952;-0.120;2024-03-02T07:12:07;9.18;;;2.15;;
61393;SDS011;48555;50.952;-0.120;2024-03-02T07:14:32;6.80;;;1.45;;
61393;SDS011;48555;50.952;-0.120;2024-03-02T07:17:16;6.75;;;1.77;;
61393;SDS011;48555;50.952;-0.120;2024-03-02T07:19:41;5.25;;;1.70;;
61393;SDS011;48555;50.952;-0.120;2024-03-02T07:22:07;8.60;;;1.83;;
61393;SDS011;48555;50.952;-0.120;2024-03-02T07:24:38;9.30;;;1.60;;
61393;SDS011;48555;50.952;-0.120;2024-03-02T07:27:05;8.20;;;1.45;;
61393;SDS011;48555;50.952;-0.120;2024-03-02T07:29:30;8.70;;;1.63;;
61393;SDS011;48555;50.952;-0.120;2024-03-02T07:31:56;10.95;;;1.90;;
61393;SDS011;48555;50.952;-0.120;2024-03-02T07:34:21;10.77;;;2.58;;
61393;SDS011;48555;50.952;-0.120;2024-03-02T07:36:47;8.70;;;1.95;;
61393;SDS011;48555;50.952;-0.120;2024-03-02T07:39:12;8.93;;;1.88;;
61393;SDS011;48555;50.952;-0.120;2024-03-02T07:41:37;10.57;;;2.00;;
61393;SDS011;48555;50.952;-0.120;2024-03-02T07:44:03;6.95;;;1.42;;
61393;SDS011;48555;50.952;-0.120;2024-03-02T07:46:28;11.55;;;2.90;;
61393;SDS011;48555;50.952;-0.120;2024-03-02T07:48:54;9.60;;;1.73;;
61393;SDS011;48555;50.952;-0.120;2024-03-02T07:51:19;8.32;;;1.30;;
61393;SDS011;48555;50.952;-0.120;2024-03-02T07:53:45;5.70;;;1.50;;
61393;SDS011;48555;50.952;-0.120;2024-03-02T07:56:10;8.65;;;1.50;;
61393;SDS011;48555;50.952;-0.120;2024-03-02T07:58:35;6.43;;;1.55;;
61393;SDS011;48555;50.952;-0.120;2024-03-02T08:01:01;8.20;;;1.65;;
61393;SDS011;48555;50.952;-0.120;2024-03-02T08:03:27;5.35;;;1.27;;
61393;SDS011;48555;50.952;-0.120;2024-03-02T08:05:52;7.57;;;1.67;;
61393;SDS011;48555;50.952;-0.120;2024-03-02T08:08:18;6.80;;;1.40;;
61393;SDS011;48555;50.952;-0.120;2024-03-02T08:10:43;10.70;;;1.92;;
61393;SDS011;48555;50.952;-0.120;2024-03-02T08:13:09;10.25;;;1.80;;
61393;SDS011;48555;50.952;-0.120;2024-03-02T08:15:34;8.32;;;1.45;;
61393;SDS011;48555;50.952;-0.120;2024-03-02T08:17:59;7.20;;;1.50;;
61393;SDS011;48555;50.952;-0.120;2024-03-02T08:20:26;7.43;;;1.40;;
61393;SDS011;48555;50.952;-0.120;2024-03-02T08:22:51;9.38;;;1.63;;
61393;SDS011;48555;50.952;-0.120;2024-03-02T08:25:19;13.48;;;2.10;;
61393;SDS011;48555;50.952;-0.120;2024-03-02T08:27:44;6.22;;;1.60;;
61393;SDS011;48555;50.952;-0.120;2024-03-02T08:30:09;12.35;;;1.95;;
61393;SDS011;48555;50.952;-0.120;2024-03-02T08:32:35;9.07;;;1.67;;
61393;SDS011;48555;50.952;-0.120;2024-03-02T08:35:01;9.77;;;1.83;;
61393;SDS011;48555;50.952;-0.120;2024-03-02T08:37:26;6.82;;;1.92;;
61393;SDS011;48555;50.952;-0.120;2024-03-02T08:39:51;9.27;;;1.98;;
61393;SDS011;48555;50.952;-0.120;2024-03-02T08:42:17;10.25;;;2.13;;
61393;SDS011;48555;50.952;-0.120;2024-03-02T08:44:42;8.07;;;1.67;;
61393;SDS011;48555;50.952;-0.120;2024-03-02T08:47:08;9.00;;;2.28;;
61393;SDS011;48555;50.952;-0.120;2024-03-02T08:49:33;9.57;;;1.77;;
61393;SDS011;48555;50.952;-0.120;2024-03-02T08:51:59;7.47;;;1.50;;
61393;SDS011;48555;50.952;-0.120;2024-03-02T08:54:24;12.35;;;2.05;;
61393;SDS011;48555;50.952;-0.120;2024-03-02T08:56:49;7.68;;;1.95;;
61393;SDS011;48555;50.952;-0.120;2024-03-02T08:59:15;5.45;;;1.20;;
61393;SDS011;48555;50.952;-0.120;2024-03-02T09:01:41;4.60;;;1.15;;
61393;SDS011;48555;50.952;-0.120;2024-03-02T09:04:07;4.72;;;1.17;;
61393;SDS011;48555;50.952;-0.120;2024-03-02T09:06:33;6.18;;;1.33;;
61393;SDS011;48555;50.952;-0.120;2024-03-02T09:08:59;7.25;;;1.60;;
61393;SDS011;48555;50.952;-0.120;2024-03-02T09:11:24;10.43;;;1.80;;
61393;SDS011;48555;50.952;-0.120;2024-03-02T09:13:50;9.00;;;1.75;;
61393;SDS011;48555;50.952;-0.120;2024-03-02T09:16:15;7.63;;;1.38;;
61393;SDS011;48555;50.952;-0.120;2024-03-02T09:18:40;8.18;;;1.20;;
61393;SDS011;48555;50.952;-0.120;2024-03-02T09:21:06;7.40;;;1.20;;
61393;SDS011;48555;50.952;-0.120;2024-03-02T09:23:32;8.75;;;1.60;;
61393;SDS011;48555;50.952;-0.120;2024-03-02T09:25:58;7.82;;;1.20;;
61393;SDS011;48555;50.952;-0.120;2024-03-02T09:28:23;8.40;;;1.17;;
61393;SDS011;48555;50.952;-0.120;2024-03-02T09:30:49;8.90;;;1.55;;
61393;SDS011;48555;50.952;-0.120;2024-03-02T09:33:14;14.15;;;2.40;;
61393;SDS011;48555;50.952;-0.120;2024-03-02T09:35:39;11.68;;;1.67;;
61393;SDS011;48555;50.952;-0.120;2024-03-02T09:38:04;9.07;;;1.90;;
61393;SDS011;48555;50.952;-0.120;2024-03-02T09:40:30;10.65;;;1.63;;
61393;SDS011;48555;50.952;-0.120;2024-03-02T09:42:55;7.93;;;1.80;;
61393;SDS011;48555;50.952;-0.120;2024-03-02T09:45:22;7.45;;;1.67;;
61393;SDS011;48555;50.952;-0.120;2024-03-02T09:47:49;9.45;;;1.77;;
61393;SDS011;48555;50.952;-0.120;2024-03-02T09:50:14;9.50;;;2.03;;
61393;SDS011;48555;50.952;-0.120;2024-03-02T09:52:40;6.03;;;1.70;;
61393;SDS011;48555;50.952;-0.120;2024-03-02T09:55:07;5.30;;;1.40;;
61393;SDS011;48555;50.952;-0.120;2024-03-02T09:57:33;5.85;;;1.30;;
61393;SDS011;48555;50.952;-0.120;2024-03-02T09:59:58;4.53;;;1.20;;
61393;SDS011;48555;50.952;-0.120;2024-03-02T10:02:23;5.53;;;1.05;;
61393;SDS011;48555;50.952;-0.120;2024-03-02T10:04:49;3.95;;;1.15;;
61393;SDS011;48555;50.952;-0.120;2024-03-02T10:07:15;5.97;;;1.17;;
61393;SDS011;48555;50.952;-0.120;2024-03-02T10:09:42;3.90;;;0.57;;
61393;SDS011;48555;50.952;-0.120;2024-03-02T10:12:09;3.63;;;0.52;;
61393;SDS011;48555;50.952;-0.120;2024-03-02T10:14:39;1.42;;;0.40;;
61393;SDS011;48555;50.952;-0.120;2024-03-02T10:17:06;2.67;;;0.47;;
61393;SDS011;48555;50.952;-0.120;2024-03-02T10:19:36;5.47;;;1.00;;
61393;SDS011;48555;50.952;-0.120;2024-03-02T10:22:05;4.20;;;1.02;;
61393;SDS011;48555;50.952;-0.120;2024-03-02T10:24:41;5.70;;;1.30;;
61393;SDS011;48555;50.952;-0.120;2024-03-02T10:29:48;2.95;;;0.90;;
61393;SDS011;48555;50.952;-0.120;2024-03-02T10:32:14;3.10;;;0.57;;
61393;SDS011;48555;50.952;-0.120;2024-03-02T10:34:41;2.38;;;0.38;;
61393;SDS011;48555;50.952;-0.120;2024-03-02T10:37:07;0.93;;;0.10;;
61393;SDS011;48555;50.952;-0.120;2024-03-02T10:39:36;3.30;;;0.30;;
61393;SDS011;48555;50.952;-0.120;2024-03-02T10:42:02;4.40;;;0.43;;
61393;SDS011;48555;50.952;-0.120;2024-03-02T10:44:28;2.08;;;0.63;;
61393;SDS011;48555;50.952;-0.120;2024-03-02T10:46:55;1.58;;;0.38;;
61393;SDS011;48555;50.952;-0.120;2024-03-02T10:49:22;1.90;;;0.30;;
61393;SDS011;48555;50.952;-0.120;2024-03-02T10:51:49;3.92;;;0.50;;
61393;SDS011;48555;50.952;-0.120;2024-03-02T10:54:14;1.60;;;0.30;;
61393;SDS011;48555;50.952;-0.120;2024-03-02T10:56:40;0.90;;;0.32;;
61393;SDS011;48555;50.952;-0.120;2024-03-02T11:01:57;3.42;;;0.50;;
61393;SDS011;48555;50.952;-0.120;2024-03-02T11:04:24;4.38;;;0.30;;
61393;SDS011;48555;50.952;-0.120;2024-03-02T11:06:51;1.75;;;0.30;;
61393;SDS011;48555;50.952;-0.120;2024-03-02T11:09:21;2.40;;;0.30;;
61393;SDS011;48555;50.952;-0.120;2024-03-02T11:11:49;0.57;;;0.22;;
61393;SDS011;48555;50.952;-0.120;2024-03-02T11:14:40;2.47;;;0.52;;
61393;SDS011;48555;50.952;-0.120;2024-03-02T11:17:09;0.93;;;0.22;;
61393;SDS011;48555;50.952;-0.120;2024-03-02T11:19:37;1.83;;;0.38;;
61393;SDS011;48555;50.952;-0.120;2024-03-02T11:22:03;2.85;;;0.70;;
61393;SDS011;48555;50.952;-0.120;2024-03-02T11:24:30;2.38;;;0.40;;
61393;SDS011;48555;50.952;-0.120;2024-03-02T11:27:00;2.25;;;0.50;;
61393;SDS011;48555;50.952;-0.120;2024-03-02T11:32:06;13.70;;;5.32;;
61393;SDS011;48555;50.952;-0.120;2024-03-02T11:34:42;12.60;;;7.68;;
61393;SDS011;48555;50.952;-0.120;2024-03-02T11:37:10;26.02;;;23.13;;
61393;SDS011;48555;50.952;-0.120;2024-03-02T11:39:36;24.17;;;13.13;;
61393;SDS011;48555;50.952;-0.120;2024-03-02T11:42:04;28.02;;;17.17;;
61393;SDS011;48555;50.952;-0.120;2024-03-02T11:44:32;22.48;;;13.18;;
61393;SDS011;48555;50.952;-0.120;2024-03-02T11:47:01;33.95;;;19.23;;
61393;SDS011;48555;50.952;-0.120;2024-03-02T11:49:36;24.13;;;16.00;;
61393;SDS011;48555;50.952;-0.120;2024-03-02T11:52:07;33.65;;;20.75;;
61393;SDS011;48555;50.952;-0.120;2024-03-02T11:54:34;7.82;;;5.10;;
61393;SDS011;48555;50.952;-0.120;2024-03-02T11:57:04;7.38;;;3.10;;
61393;SDS011;48555;50.952;-0.120;2024-03-02T11:59:30;8.65;;;4.70;;
61393;SDS011;48555;50.952;-0.120;2024-03-02T12:01:55;8.13;;;3.47;;
61393;SDS011;48555;50.952;-0.120;2024-03-02T12:04:22;4.90;;;1.40;;
61393;SDS011;48555;50.952;-0.120;2024-03-02T12:06:48;2.67;;;1.00;;
61393;SDS011;48555;50.952;-0.120;2024-03-02T12:09:20;4.85;;;1.10;;
61393;SDS011;48555;50.952;-0.120;2024-03-02T12:11:46;2.90;;;0.85;;
61393;SDS011;48555;50.952;-0.120;2024-03-02T12:14:11;6.07;;;1.23;;
61393;SDS011;48555;50.952;-0.120;2024-03-02T12:16:44;3.67;;;1.00;;
61393;SDS011;48555;50.952;-0.120;2024-03-02T12:19:09;4.32;;;1.10;;
61393;SDS011;48555;50.952;-0.120;2024-03-02T12:21:34;1.27;;;0.43;;
61393;SDS011;48555;50.952;-0.120;2024-03-02T12:24:01;2.78;;;0.60;;
61393;SDS011;48555;50.952;-0.120;2024-03-02T12:26:26;3.50;;;0.65;;
61393;SDS011;48555;50.952;-0.120;2024-03-02T12:28:53;4.93;;;0.68;;
61393;SDS011;48555;50.952;-0.120;2024-03-02T12:31:19;4.50;;;0.85;;
61393;SDS011;48555;50.952;-0.120;2024-03-02T12:33:44;1.77;;;0.73;;
61393;SDS011;48555;50.952;-0.120;2024-03-02T12:36:09;4.30;;;1.65;;
61393;SDS011;48555;50.952;-0.120;2024-03-02T12:38:37;2.88;;;1.10;;
61393;SDS011;48555;50.952;-0.120;2024-03-02T12:41:02;2.92;;;0.77;;
61393;SDS011;48555;50.952;-0.120;2024-03-02T12:43:30;2.90;;;0.90;;
61393;SDS011;48555;50.952;-0.120;2024-03-02T12:45:56;0.82;;;0.40;;
61393;SDS011;48555;50.952;-0.120;2024-03-02T12:48:22;2.25;;;0.60;;
61393;SDS011;48555;50.952;-0.120;2024-03-02T12:50:48;2.38;;;0.52;;
61393;SDS011;48555;50.952;-0.120;2024-03-02T12:53:14;2.15;;;0.90;;
61393;SDS011;48555;50.952;-0.120;2024-03-02T12:55:41;1.42;;;0.50;;
61393;SDS011;48555;50.952;-0.120;2024-03-02T12:58:07;1.10;;;0.32;;
61393;SDS011;48555;50.952;-0.120;2024-03-02T13:00:32;3.90;;;0.47;;
61393;SDS011;48555;50.952;-0.120;2024-03-02T13:03:00;2.20;;;0.70;;
61393;SDS011;48555;50.952;-0.120;2024-03-02T13:05:29;3.17;;;0.50;;
61393;SDS011;48555;50.952;-0.120;2024-03-02T13:07:56;2.58;;;0.60;;
61393;SDS011;48555;50.952;-0.120;2024-03-02T13:10:21;2.65;;;0.68;;
61393;SDS011;48555;50.952;-0.120;2024-03-02T13:12:47;2.17;;;0.88;;
61393;SDS011;48555;50.952;-0.120;2024-03-02T13:15:12;1.45;;;0.35;;
61393;SDS011;48555;50.952;-0.120;2024-03-02T13:17:38;1.50;;;0.40;;
61393;SDS011;48555;50.952;-0.120;2024-03-02T13:20:04;2.75;;;0.47;;
61393;SDS011;48555;50.952;-0.120;2024-03-02T13:22:33;2.42;;;0.40;;
61393;SDS011;48555;50.952;-0.120;2024-03-02T13:24:58;1.17;;;0.38;;
61393;SDS011;48555;50.952;-0.120;2024-03-02T13:27:25;2.90;;;0.40;;
61393;SDS011;48555;50.952;-0.120;2024-03-02T13:29:50;4.10;;;0.80;;
61393;SDS011;48555;50.952;-0.120;2024-03-02T13:32:15;3.33;;;0.75;;
61393;SDS011;48555;50.952;-0.120;2024-03-02T13:34:41;1.80;;;0.50;;
61393;SDS011;48555;50.952;-0.120;2024-03-02T13:37:07;3.83;;;0.90;;
61393;SDS011;48555;50.952;-0.120;2024-03-02T13:39:32;1.05;;;0.40;;
61393;SDS011;48555;50.952;-0.120;2024-03-02T13:42:04;3.13;;;0.60;;
61393;SDS011;48555;50.952;-0.120;2024-03-02T13:44:32;3.65;;;0.60;;
61393;SDS011;48555;50.952;-0.120;2024-03-02T13:46:59;3.95;;;0.88;;
61393;SDS011;48555;50.952;-0.120;2024-03-02T13:49:25;5.00;;;0.77;;
61393;SDS011;48555;50.952;-0.120;2024-03-02T13:51:58;1.83;;;0.60;;
61393;SDS011;48555;50.952;-0.120;2024-03-02T13:54:29;1.42;;;0.50;;
61393;SDS011;48555;50.952;-0.120;2024-03-02T13:56:55;1.60;;;0.60;;
61393;SDS011;48555;50.952;-0.120;2024-03-02T13:59:22;1.40;;;0.57;;
61393;SDS011;48555;50.952;-0.120;2024-03-02T14:01:48;2.30;;;0.50;;
61393;SDS011;48555;50.952;-0.120;2024-03-02T14:04:14;3.50;;;0.93;;
61393;SDS011;48555;50.952;-0.120;2024-03-02T14:06:39;0.73;;;0.40;;
61393;SDS011;48555;50.952;-0.120;2024-03-02T14:09:04;4.05;;;1.38;;
61393;SDS011;48555;50.952;-0.120;2024-03-02T14:11:30;1.13;;;0.68;;
61393;SDS011;48555;50.952;-0.120;2024-03-02T14:13:55;4.45;;;0.70;;
61393;SDS011;48555;50.952;-0.120;2024-03-02T14:16:22;2.40;;;0.73;;
61393;SDS011;48555;50.952;-0.120;2024-03-02T14:18:47;4.60;;;1.05;;
61393;SDS011;48555;50.952;-0.120;2024-03-02T14:21:12;2.78;;;0.63;;
61393;SDS011;48555;50.952;-0.120;2024-03-02T14:23:38;1.42;;;0.65;;
61393;SDS011;48555;50.952;-0.120;2024-03-02T14:26:03;3.53;;;0.80;;
61393;SDS011;48555;50.952;-0.120;2024-03-02T14:28:28;3.13;;;1.27;;
61393;SDS011;48555;50.952;-0.120;2024-03-02T14:30:54;0.98;;;0.70;;
61393;SDS011;48555;50.952;-0.120;2024-03-02T14:33:19;1.17;;;0.80;;
61393;SDS011;48555;50.952;-0.120;2024-03-02T14:35:45;1.25;;;0.60;;
61393;SDS011;48555;50.952;-0.120;2024-03-02T14:38:11;4.13;;;1.00;;
61393;SDS011;48555;50.952;-0.120;2024-03-02T14:40:37;1.63;;;0.77;;